Time;durP1;ratioP1;P1;durP2;ratioP2;P2;SDS_P1;SDS_P2;PMS_P1;PMS_P2;Temp;Humidity;BMP_temperature;BMP_pressure;BME280_temperature;BME280_humidity;BME280_pressure;Samples;Min_cycle;Max_cycle;Signal;HPM_P1;HPM_P2
2022/08/08 00:03:20;;;;;;;;;2.00;2.00;;;;;20.30;53.87;99836.31;6289814;20;2728458;-59
2022/08/08 00:06:17;;;;;;;;;2.00;2.00;;;;;20.66;52.38;99837.25;6289966;20;2729454;-59
2022/08/08 00:09:35;;;;;;;;;2.00;2.00;;;;;20.38;53.66;99841.88;6320788;20;2746144;-59
2022/08/08 00:12:11;;;;;;;;;4.00;2.00;;;;;20.61;52.53;99848.59;6289708;20;2721424;-59
2022/08/08 00:14:57;;;;;;;;;2.00;2.00;;;;;20.37;53.00;99841.00;6288901;20;2731635;-59
2022/08/08 00:17:53;;;;;;;;;3.00;2.00;;;;;20.24;53.80;99845.09;6291890;20;2744011;-59
2022/08/08 00:20:54;;;;;;;;;2.33;2.33;;;;;20.09;54.13;99833.84;6319620;20;2737804;-59
2022/08/08 00:23:51;;;;;;;;;2.00;2.00;;;;;20.11;54.20;99834.56;6316844;20;2732718;-59
2022/08/08 00:26:43;;;;;;;;;3.00;1.00;;;;;20.13;54.28;99829.81;6287655;20;2730468;-59
2022/08/08 00:29:50;;;;;;;;;2.00;2.00;;;;;19.98;55.09;99826.72;6292797;20;2727372;-59
2022/08/08 00:32:52;;;;;;;;;3.00;3.00;;;;;20.42;53.10;99834.25;6294598;20;2731557;-59
2022/08/08 00:35:47;;;;;;;;;3.60;3.60;;;;;20.60;52.48;99814.16;6314516;20;2743275;-59
2022/08/08 00:38:40;;;;;;;;;3.00;3.00;;;;;20.30;53.64;99828.13;6318582;20;2731498;-59
2022/08/08 00:41:41;;;;;;;;;3.50;3.00;;;;;20.00;54.57;99821.16;6296141;20;2748174;-59
2022/08/08 00:45:23;;;;;;;;;3.00;2.00;;;;;19.93;54.93;99816.31;6290842;20;2724461;-58
2022/08/08 00:48:34;;;;;;;;;1.50;1.50;;;;;19.88;55.04;99826.81;6290598;20;2741921;-59
2022/08/08 00:51:29;;;;;;;;;2.00;2.00;;;;;19.82;55.86;99813.75;6291355;20;2744115;-58
2022/08/08 00:54:49;;;;;;;;;4.00;4.00;;;;;19.44;57.12;99815.63;6290507;20;2756524;-59
2022/08/08 00:58:03;;;;;;;;;2.00;2.00;;;;;19.55;57.61;99821.88;6286203;20;2744035;-59
2022/08/08 01:01:07;;;;;;;;;2.00;2.00;;;;;19.48;57.57;99821.59;6289978;20;2731518;-59
2022/08/08 01:03:56;;;;;;;;;3.00;3.00;;;;;19.58;57.41;99824.31;6288610;20;2727503;-59
2022/08/08 01:07:19;;;;;;;;;2.00;2.00;;;;;19.62;56.50;99825.75;6289309;20;2733641;-59
2022/08/08 01:10:23;;;;;;;;;6.00;3.00;;;;;18.93;58.98;99822.31;6291409;20;2738992;-57
2022/08/08 01:13:49;;;;;;;;;3.00;3.00;;;;;19.06;58.64;99803.81;6326966;20;2732744;-59
2022/08/08 01:17:16;;;;;;;;;3.00;3.00;;;;;18.85;59.26;99811.28;6316969;20;2729508;-61
2022/08/08 01:20:27;;;;;;;;;3.50;3.50;;;;;18.87;59.32;99790.22;6288669;20;2748258;-61
2022/08/08 01:24:02;;;;;;;;;3.50;3.00;;;;;18.39;61.22;99783.78;6290853;20;2741918;-61
2022/08/08 01:27:12;;;;;;;;;4.50;4.00;;;;;18.69;59.90;99790.06;6284722;20;2756519;-61
2022/08/08 01:30:34;;;;;;;;;3.00;3.00;;;;;18.62;60.71;99788.94;6283320;20;2742078;-61
2022/08/08 01:33:40;;;;;;;;;4.00;3.00;;;;;18.82;60.24;99784.38;6288962;20;2750288;-60
2022/08/08 01:36:57;;;;;;;;;2.00;2.00;;;;;18.33;61.68;99775.34;6292003;20;2720113;-61
2022/08/08 01:39:56;;;;;;;;;3.00;3.00;;;;;18.29;61.95;99774.75;6286322;20;2756684;-61
2022/08/08 01:43:05;;;;;;;;;2.50;2.50;;;;;18.97;59.93;99782.91;6288358;20;2746121;-61
2022/08/08 01:46:25;;;;;;;;;3.50;3.50;;;;;19.15;58.75;99790.34;6278788;20;2756639;-61
2022/08/08 01:49:18;;;;;;;;;5.00;3.00;;;;;18.69;60.87;99781.91;6290714;20;2741924;-61
2022/08/08 01:52:36;;;;;;;;;3.00;3.00;;;;;19.02;59.64;99775.19;6292408;20;2739908;-59
2022/08/08 01:55:41;;;;;;;;;7.00;4.00;;;;;19.40;58.71;99769.75;6289481;20;2630480;-59
2022/08/08 01:59:01;;;;;;;;;3.00;3.00;;;;;19.57;58.33;99773.56;6289799;20;2738787;-59
2022/08/08 02:02:26;;;;;;;;;5.00;4.00;;;;;19.57;58.32;99765.41;6288339;20;2754476;-59
2022/08/08 02:05:45;;;;;;;;;3.00;3.00;;;;;19.44;58.56;99772.03;6286131;20;2739958;-59
2022/08/08 02:09:11;;;;;;;;;4.00;4.00;;;;;19.67;58.26;99769.84;6289317;20;2754474;-59
2022/08/08 02:11:47;;;;;;;;;4.00;4.00;;;;;19.57;59.21;99770.84;6285454;20;2756525;-59
2022/08/08 02:14:45;;;;;;;;;4.00;4.00;;;;;19.67;58.93;99771.72;6282996;20;2755475;-59
2022/08/08 02:17:51;;;;;;;;;5.00;3.00;;;;;19.46;59.20;99786.38;6284763;20;2744485;-60
2022/08/08 02:20:40;;;;;;;;;4.00;4.00;;;;;19.81;58.11;99779.38;6285418;20;2752403;-59
2022/08/08 02:23:43;;;;;;;;;6.00;4.50;;;;;19.81;58.79;99779.38;6288753;20;2747170;-59
2022/08/08 02:26:41;;;;;;;;;3.50;3.00;;;;;19.83;58.14;99777.34;6285793;20;2745082;-59
2022/08/08 02:30:03;;;;;;;;;4.00;4.00;;;;;19.69;58.97;99784.13;6285521;20;2739844;-59
2022/08/08 02:33:54;;;;;;;;;4.00;4.00;;;;;19.71;58.47;99789.44;6285305;20;2750312;-59
2022/08/08 02:36:50;;;;;;;;;7.00;5.00;;;;;19.73;58.66;99776.53;6293162;20;2741904;-59
2022/08/08 02:40:07;;;;;;;;;5.00;5.00;;;;;19.62;59.56;99790.34;6293108;20;2745066;-59
2022/08/08 02:43:35;;;;;;;;;5.00;4.00;;;;;19.20;60.84;99805.22;6292039;20;2744002;-59
2022/08/08 02:46:49;;;;;;;;;5.00;5.00;;;;;19.46;60.19;99810.88;6287848;20;2746126;-59
2022/08/08 02:50:03;;;;;;;;;4.00;4.00;;;;;19.31;60.58;99815.09;6288377;20;2753380;-59
2022/08/08 02:53:23;;;;;;;;;5.00;3.00;;;;;19.52;60.65;99818.44;6292448;20;2754472;-61
2022/08/08 02:56:03;;;;;;;;;4.00;4.00;;;;;19.64;60.05;99821.88;6289301;20;2743017;-60
2022/08/08 02:59:49;;;;;;;;;5.00;4.00;;;;;19.86;59.31;99825.25;6316829;20;2739862;-61
2022/08/08 03:03:09;;;;;;;;;3.80;3.80;;;;;20.05;58.50;99816.09;6330611;20;2738949;-61
2022/08/08 03:06:22;;;;;;;;;4.00;4.00;;;;;20.08;58.16;99818.50;6313163;20;2748231;-59
2022/08/08 03:09:07;;;;;;;;;4.00;4.00;;;;;19.82;58.93;99824.66;6284058;20;2748173;-60
2022/08/08 03:12:21;;;;;;;;;4.50;4.50;;;;;20.09;58.48;99821.09;6287405;20;2746085;-59
2022/08/08 03:16:20;;;;;;;;;5.00;4.50;;;;;19.82;59.17;99819.22;6287862;20;2754510;-60
2022/08/08 03:19:53;;;;;;;;;3.00;3.00;;;;;19.87;59.28;99819.63;6290382;20;2747380;-60
2022/08/08 03:22:21;;;;;;;;;9.50;5.00;;;;;19.93;59.79;99812.69;6291825;20;2748221;-59
2022/08/08 03:25:10;;;;;;;;;4.00;4.00;;;;;19.63;60.22;99819.28;6290694;20;2748284;-59
2022/08/08 03:27:59;;;;;;;;;4.60;4.60;;;;;19.64;60.47;99820.97;6308093;20;2743002;-59
2022/08/08 03:30:29;;;;;;;;;5.40;4.00;;;;;19.88;59.94;99832.25;6339697;20;2737780;-59
2022/08/08 03:33:19;;;;;;;;;4.00;4.00;;;;;19.99;59.34;99841.25;6313272;20;2751377;-59
2022/08/08 03:36:09;;;;;;;;;4.00;4.00;;;;;19.65;61.11;99848.09;6288854;20;2739840;-59
2022/08/08 03:38:37;;;;;;;;;5.00;5.00;;;;;19.76;60.52;99846.22;6291335;20;2743164;-59
2022/08/08 03:41:35;;;;;;;;;5.00;5.00;;;;;19.57;61.72;99855.28;6290712;20;2750362;-61
2022/08/08 03:44:22;;;;;;;;;4.00;4.00;;;;;19.69;60.71;99845.94;6287816;20;2740967;-61
2022/08/08 03:46:52;;;;;;;;;5.00;5.00;;;;;19.76;60.18;99851.66;6288436;20;2745090;-59
2022/08/08 03:49:25;;;;;;;;;3.00;3.00;;;;;19.67;60.57;99853.44;6286346;20;2744011;-58
2022/08/08 03:52:14;;;;;;;;;4.00;4.00;;;;;19.81;60.25;99849.34;6289108;20;2751366;-60
2022/08/08 03:54:46;;;;;;;;;6.00;4.00;;;;;19.80;60.57;99848.50;6282615;20;2741931;-59
2022/08/08 03:57:35;;;;;;;;;6.00;5.00;;;;;20.11;59.80;99840.88;6286500;20;2750285;-59
2022/08/08 04:00:28;;;;;;;;;8.00;4.50;;;;;20.14;59.73;99834.25;6289607;20;2747190;-58
2022/08/08 04:03:07;;;;;;;;;6.00;5.00;;;;;20.07;60.05;99839.47;6291762;20;2733595;-59
2022/08/08 04:05:38;;;;;;;;;3.00;3.00;;;;;20.13;60.53;99838.84;6291774;20;2735754;-58
2022/08/08 04:08:23;;;;;;;;;6.00;4.00;;;;;19.99;61.27;99842.09;6291165;20;2747126;-59
2022/08/08 04:11:04;;;;;;;;;5.00;5.00;;;;;20.02;62.25;99846.38;6292401;20;2477319;-59
2022/08/08 04:13:38;;;;;;;;;5.00;5.00;;;;;19.64;64.25;99853.66;6289825;20;2742959;-59
2022/08/08 04:16:26;;;;;;;;;4.00;4.00;;;;;19.73;65.13;99847.38;6284007;20;2741021;-59
2022/08/08 04:19:10;;;;;;;;;3.50;3.50;;;;;19.79;65.70;99849.50;6289521;20;2751257;-58
2022/08/08 04:21:51;;;;;;;;;4.50;4.50;;;;;19.64;66.46;99848.22;6290038;20;2731641;-59
2022/08/08 04:24:22;;;;;;;;;6.60;4.60;;;;;19.84;66.26;99849.91;6315853;20;2754462;-59
2022/08/08 04:26:59;;;;;;;;;4.00;4.00;;;;;19.85;66.01;99851.63;6343819;20;2745118;-58
2022/08/08 04:29:29;;;;;;;;;5.60;4.80;;;;;19.94;66.40;99849.88;6341735;20;2731620;-60
2022/08/08 04:32:05;;;;;;;;;8.00;5.00;;;;;19.86;66.71;99864.25;6317644;20;2739988;-60
2022/08/08 04:34:34;;;;;;;;;5.00;5.00;;;;;19.97;67.12;99865.06;6290434;20;2744051;-60
2022/08/08 04:37:22;;;;;;;;;2.50;2.00;;;;;20.00;67.24;99859.31;6286708;20;2735653;-59
2022/08/08 04:40:02;;;;;;;;;3.80;3.80;;;;;19.93;67.89;99857.19;6314605;20;2745046;-59
2022/08/08 04:42:37;;;;;;;;;5.00;5.00;;;;;19.83;68.20;99864.53;6285368;20;2746093;-59
2022/08/08 04:45:24;;;;;;;;;5.50;4.50;;;;;19.83;67.79;99867.28;6290147;20;2744058;-59
2022/08/08 04:47:56;;;;;;;;;5.80;4.00;;;;;20.15;66.47;99865.97;6309803;20;2747188;-59
2022/08/08 04:50:26;;;;;;;;;4.00;4.00;;;;;20.28;66.54;99873.81;6342479;20;2752365;-59
2022/08/08 04:53:06;;;;;;;;;5.60;4.60;;;;;20.29;66.34;99868.19;6311014;20;2746288;-58
2022/08/08 04:55:54;;;;;;;;;6.00;5.00;;;;;19.74;68.86;99873.59;6316494;20;2739866;-60
2022/08/08 04:58:25;;;;;;;;;4.40;4.20;;;;;19.86;68.21;99864.25;6310113;20;2738850;-59
2022/08/08 05:00:53;;;;;;;;;4.50;4.00;;;;;20.17;66.77;99861.25;6317431;20;2743129;-59
2022/08/08 05:03:22;;;;;;;;;3.00;3.00;;;;;20.23;67.08;99862.50;6294085;20;2746206;-60
2022/08/08 05:06:10;;;;;;;;;6.00;6.00;;;;;20.19;66.77;99867.38;6291866;20;2743015;-59
2022/08/08 05:08:46;;;;;;;;;5.00;5.00;;;;;20.30;65.83;99867.19;6291399;20;2748193;-59
2022/08/08 05:11:20;;;;;;;;;6.50;5.00;;;;;20.38;65.63;99858.25;6288560;20;2736734;-59
2022/08/08 05:13:52;;;;;;;;;7.00;5.00;;;;;20.37;65.76;99864.69;6295110;20;2737786;-59
2022/08/08 05:16:31;;;;;;;;;8.20;5.60;;;;;20.64;65.14;99857.50;6313764;20;2733656;-60
2022/08/08 05:19:20;;;;;;;;;5.60;5.60;;;;;20.64;64.74;99866.53;6342275;20;2745131;-59
2022/08/08 05:22:10;;;;;;;;;6.20;4.20;;;;;20.30;66.04;99856.28;6340142;20;2748270;-59
2022/08/08 05:24:38;;;;;;;;;4.00;4.00;;;;;20.42;65.97;99862.38;6317371;20;2736872;-59
2022/08/08 05:27:07;;;;;;;;;4.00;4.00;;;;;20.56;65.64;99861.00;6291398;20;2744029;-60
2022/08/08 05:29:36;;;;;;;;;3.67;3.67;;;;;20.42;66.08;99859.63;6320842;20;2741036;-59
2022/08/08 05:32:09;;;;;;;;;6.40;5.00;;;;;20.62;65.91;99865.88;6343259;20;2748205;-59
2022/08/08 05:34:51;;;;;;;;;4.67;4.67;;;;;20.68;65.75;99867.97;6320112;20;2739919;-59
2022/08/08 05:37:26;;;;;;;;;4.00;4.00;;;;;20.72;65.96;99863.91;6320277;20;2726280;-59
2022/08/08 05:40:16;;;;;;;;;4.33;4.00;;;;;20.67;65.97;99868.97;6320996;20;2735736;-59
2022/08/08 05:42:51;;;;;;;;;5.60;4.00;;;;;20.70;66.77;99879.59;6344415;20;2749215;-59
2022/08/08 05:45:23;;;;;;;;;6.40;6.00;;;;;20.53;66.47;99877.66;6339356;20;2738797;-60
2022/08/08 05:48:12;;;;;;;;;5.33;5.33;;;;;20.59;67.50;99874.34;6319848;20;2747160;-59
2022/08/08 05:50:44;;;;;;;;;6.00;5.00;;;;;20.75;67.51;99879.97;6342997;20;2734657;-59
2022/08/08 05:53:17;;;;;;;;;6.00;5.00;;;;;20.90;66.83;99873.97;6339683;20;2728442;-59
2022/08/08 05:56:08;;;;;;;;;5.00;5.00;;;;;21.00;66.79;99875.59;6338355;20;2748678;-59
2022/08/08 05:58:45;;;;;;;;;5.80;5.80;;;;;21.12;66.11;99873.50;6339210;20;2732687;-59
2022/08/08 06:01:32;;;;;;;;;5.00;5.00;;;;;21.16;66.15;99863.94;6316561;20;2742968;-59
2022/08/08 06:04:29;;;;;;;;;4.33;4.33;;;;;21.37;64.81;99870.94;6318007;20;2740867;-59
2022/08/08 06:06:59;;;;;;;;;5.00;5.00;;;;;21.33;64.75;99875.00;6312711;20;2745070;-59
2022/08/08 06:09:31;;;;;;;;;5.40;5.00;;;;;21.75;64.50;99871.56;6340540;20;2742967;-59
2022/08/08 06:12:21;;;;;;;;;5.00;4.00;;;;;21.87;62.17;99868.38;6341307;20;2735686;-59
2022/08/08 06:15:04;;;;;;;;;4.00;4.00;;;;;21.92;62.21;99876.09;6316527;20;2752373;-59
2022/08/08 06:17:38;;;;;;;;;5.00;5.00;;;;;22.25;60.01;99879.88;6338062;20;2746147;-59
2022/08/08 06:20:26;;;;;;;;;3.33;3.33;;;;;22.26;60.05;99881.59;6318422;20;2750300;-59
2022/08/08 06:22:58;;;;;;;;;4.00;4.00;;;;;22.29;58.85;99883.13;6339524;20;2740902;-59
2022/08/08 06:25:31;;;;;;;;;4.67;4.67;;;;;22.36;57.61;99878.72;6316754;20;2745073;-61
2022/08/08 06:28:42;;;;;;;;;3.00;3.00;;;;;22.49;56.37;99890.06;6313557;20;2741982;-61
2022/08/08 06:31:20;;;;;;;;;5.20;4.40;;;;;22.66;56.14;99898.31;6340882;20;2748227;-61
2022/08/08 06:34:19;;;;;;;;;3.20;3.20;;;;;22.67;56.03;99894.53;6339826;20;2755625;-62
2022/08/08 06:37:01;;;;;;;;;3.80;3.80;;;;;22.90;56.17;99902.97;6305534;20;2754482;-61
2022/08/08 06:39:56;;;;;;;;;4.60;4.60;;;;;22.75;59.52;99911.00;6306650;20;2736888;-61
2022/08/08 06:42:34;;;;;;;;;5.33;4.33;;;;;22.79;60.11;99904.16;6316895;20;2747138;-61
2022/08/08 06:45:06;;;;;;;;;4.00;4.00;;;;;23.13;59.09;99914.16;6340189;20;2736742;-61
2022/08/08 06:47:37;;;;;;;;;3.00;3.00;;;;;23.33;56.51;99912.81;6337635;20;2736718;-61
2022/08/08 06:50:27;;;;;;;;;3.00;3.00;;;;;23.63;55.51;99915.88;6316305;20;2735696;-61
2022/08/08 06:53:08;;;;;;;;;4.60;4.60;;;;;24.14;54.08;99918.34;6342130;20;2740998;-61
2022/08/08 06:55:46;;;;;;;;;2.00;2.00;;;;;23.95;53.87;99925.94;6335822;20;2729528;-62
2022/08/08 06:58:31;;;;;;;;;3.80;3.80;;;;;24.38;52.44;99917.41;6337570;20;2727333;-61
2022/08/08 07:01:06;;;;;;;;;4.00;4.00;;;;;24.10;53.32;99918.69;6339385;20;2753422;-61
2022/08/08 07:04:00;;;;;;;;;3.00;1.00;;;;;24.81;50.43;99916.00;6311461;20;2732577;-61
2022/08/08 07:06:58;;;;;;;;;3.00;3.00;;;;;25.69;48.22;99911.03;6334830;20;2751275;-62
2022/08/08 07:09:50;;;;;;;;;4.00;3.80;;;;;25.88;47.78;99916.03;6306740;20;2746529;-61
2022/08/08 07:12:43;;;;;;;;;3.40;3.40;;;;;25.90;47.06;99927.72;6305049;20;2738791;-62
2022/08/08 07:15:17;;;;;;;;;3.00;3.00;;;;;26.22;46.40;99931.97;6337571;20;2744054;-61
2022/08/08 07:18:09;;;;;;;;;2.20;2.20;;;;;26.32;46.54;99928.94;6307300;20;2746081;-61
2022/08/08 07:21:07;;;;;;;;;4.00;2.80;;;;;26.73;44.80;99924.88;6312996;20;2744034;-61
2022/08/08 07:24:16;;;;;;;;;3.00;3.00;;;;;27.15;43.76;99927.66;6313108;20;2744037;-61
2022/08/08 07:26:46;;;;;;;;;6.20;3.80;;;;;27.41;43.32;99950.19;6304979;20;2746577;-61
2022/08/08 07:29:22;;;;;;;;;3.00;3.00;;;;;27.01;43.37;99941.47;6311447;20;2741924;-62
2022/08/08 07:32:12;;;;;;;;;3.20;3.00;;;;;27.49;42.80;99934.38;6312432;20;2735694;-61
2022/08/08 07:34:47;;;;;;;;;3.00;3.00;;;;;28.23;40.99;99947.72;6308098;20;2733615;-62
2022/08/08 07:37:32;;;;;;;;;5.00;3.60;;;;;27.90;41.77;99952.16;6337235;20;2752330;-61
2022/08/08 07:40:23;;;;;;;;;4.40;2.40;;;;;27.66;42.22;99945.13;6311071;20;2733608;-61
2022/08/08 07:43:04;;;;;;;;;1.40;1.00;;;;;27.31;41.87;99945.88;6341430;20;2727341;-61
2022/08/08 07:45:40;;;;;;;;;2.80;2.80;;;;;27.43;41.93;99939.81;6341521;20;2756491;-61
2022/08/08 07:48:29;;;;;;;;;4.00;4.00;;;;;28.02;40.61;99933.97;6317820;20;2756600;-62
2022/08/08 07:51:01;;;;;;;;;4.00;4.00;;;;;26.98;40.83;99931.69;6309411;20;2744037;-62
2022/08/08 07:53:43;;;;;;;;;4.00;4.00;;;;;27.51;40.75;99940.53;6309902;20;2751290;-61
2022/08/08 07:57:09;;;;;;;;;4.00;4.00;;;;;28.43;37.92;99952.47;6311121;20;2749229;-59
2022/08/08 08:00:12;;;;;;;;;2.80;2.80;;;;;29.13;37.17;99946.88;6310890;20;2749239;-59
2022/08/08 08:03:12;;;;;;;;;3.80;3.80;;;;;29.06;37.37;99938.56;6308761;20;2746141;-60
2022/08/08 08:05:53;;;;;;;;;2.40;2.40;;;;;29.67;36.79;99940.34;6311939;20;2735757;-59
2022/08/08 08:08:41;;;;;;;;;7.20;4.00;;;;;29.53;36.95;99948.63;6310123;20;2748252;-59
2022/08/08 08:11:23;;;;;;;;;2.80;2.80;;;;;29.51;36.97;99944.38;6309465;20;2752326;-60
2022/08/08 08:14:41;;;;;;;;;2.40;2.40;;;;;29.50;36.10;99942.69;6312218;20;2747165;-59
2022/08/08 08:17:17;;;;;;;;;2.40;2.40;;;;;28.86;37.17;99941.25;6308813;20;2732573;-59
2022/08/08 08:19:49;;;;;;;;;3.60;3.60;;;;;28.89;36.99;99935.28;6314331;20;2750260;-58
2022/08/08 08:22:24;;;;;;;;;2.60;2.60;;;;;28.70;37.70;99936.06;6310041;20;2730536;-59
2022/08/08 08:25:02;;;;;;;;;4.20;3.60;;;;;28.88;37.46;99936.34;6342843;20;2749262;-59
2022/08/08 08:27:35;;;;;;;;;4.00;4.00;;;;;29.14;37.76;99938.34;6286083;20;2746660;-58
2022/08/08 08:30:06;;;;;;;;;4.60;4.60;;;;;29.27;37.19;99943.06;6344923;20;2734739;-60
2022/08/08 08:32:36;;;;;;;;;4.40;3.00;;;;;29.58;36.21;99933.31;6345141;20;2748215;-59
2022/08/08 08:35:19;;;;;;;;;3.00;3.00;;;;;29.78;36.30;99945.28;6286537;20;2744024;-56
2022/08/08 08:37:56;;;;;;;;;5.33;2.33;;;;;29.33;35.73;99950.50;6317673;20;2742025;-59
2022/08/08 08:40:47;;;;;;;;;3.00;3.00;;;;;29.30;35.56;99953.72;6345448;20;2750300;-59
2022/08/08 08:43:20;;;;;;;;;2.00;2.00;;;;;29.03;37.10;99959.16;6314719;20;2752462;-56
2022/08/08 08:46:00;;;;;;;;;3.40;3.40;;;;;28.26;38.40;99962.16;6316090;20;2743035;-55
2022/08/08 08:48:34;;;;;;;;;3.00;3.00;;;;;28.82;39.02;99964.81;6308655;20;2755560;-55
2022/08/08 08:51:13;;;;;;;;;3.00;3.00;;;;;29.12;37.19;99964.50;6289149;20;2726297;-53
2022/08/08 08:53:52;;;;;;;;;3.00;3.00;;;;;28.25;38.20;99953.00;6319499;20;2753415;-51
2022/08/08 08:56:28;;;;;;;;;3.00;3.00;;;;;27.56;40.67;99962.00;6341971;20;2752386;-52
2022/08/08 08:58:59;;;;;;;;;3.40;3.00;;;;;27.36;39.62;99962.69;6310705;20;2736722;-50
2022/08/08 09:01:42;;;;;;;;;4.20;4.00;;;;;27.40;40.53;99951.25;6308847;20;2747135;-50
2022/08/08 09:04:25;;;;;;;;;3.80;3.00;;;;;27.22;40.89;99955.31;6310591;20;2737845;-47
2022/08/08 09:07:09;;;;;;;;;4.20;4.20;;;;;27.21;41.53;99955.53;6308849;20;2739927;-49
2022/08/08 09:09:49;;;;;;;;;2.80;2.80;;;;;27.03;41.33;99962.28;6309299;20;2745048;-49
2022/08/08 09:12:27;;;;;;;;;3.40;2.80;;;;;26.88;42.18;99965.09;6311993;20;2738916;-52
2022/08/08 09:14:59;;;;;;;;;2.67;2.67;;;;;27.01;42.41;99969.03;6289610;20;2744035;-51
2022/08/08 09:17:29;;;;;;;;;3.00;3.00;;;;;27.11;41.79;99966.84;6341583;20;2732562;-52
2022/08/08 09:20:11;;;;;;;;;4.00;4.00;;;;;26.95;42.25;99967.06;6343904;20;2738819;-46
2022/08/08 09:23:02;;;;;;;;;6.60;4.00;;;;;27.09;41.63;99968.94;6308493;20;2747215;-48
2022/08/08 09:25:35;;;;;;;;;3.60;3.60;;;;;27.39;41.63;99975.22;6307218;20;2749379;-48
2022/08/08 09:28:28;;;;;;;;;3.40;3.40;;;;;27.45;42.70;99971.69;6309239;20;2751751;-48
2022/08/08 09:31:19;;;;;;;;;4.40;4.40;;;;;27.63;41.29;99973.13;6311860;20;2742999;-49
2022/08/08 09:33:54;;;;;;;;;4.00;4.00;;;;;27.55;42.55;99974.13;6311306;20;2731739;-51
2022/08/08 09:36:47;;;;;;;;;4.40;4.40;;;;;27.35;43.49;99966.47;6309144;20;2737770;-47
2022/08/08 09:40:09;;;;;;;;;5.40;4.40;;;;;27.35;43.89;99972.00;6312554;20;2742214;-49
2022/08/08 09:43:08;;;;;;;;;4.80;4.80;;;;;27.33;44.81;99973.25;6308429;20;2740037;-48
2022/08/08 09:46:00;;;;;;;;;4.67;4.67;;;;;27.72;44.18;99964.47;6285421;20;2750372;-47
2022/08/08 09:48:37;;;;;;;;;7.00;6.00;;;;;28.01;43.75;99968.13;6319097;20;2735668;-50
2022/08/08 09:51:15;;;;;;;;;5.60;4.00;;;;;27.61;44.02;99954.00;6344180;20;2746104;-50
2022/08/08 09:53:56;;;;;;;;;7.60;5.80;;;;;28.05;43.35;99958.41;6307515;20;2738833;-49
2022/08/08 09:56:53;;;;;;;;;6.00;5.00;;;;;27.71;43.21;99951.75;6284125;20;2744013;-52
2022/08/08 09:59:26;;;;;;;;;4.80;4.80;;;;;27.50;43.99;99957.31;6338689;20;2737747;-59
2022/08/08 10:02:23;;;;;;;;;6.00;5.00;;;;;27.51;43.42;99959.00;6307487;20;2748191;-60
2022/08/08 10:05:24;;;;;;;;;4.80;4.00;;;;;27.25;43.42;99957.69;6309224;20;2746168;-60
2022/08/08 10:07:59;;;;;;;;;5.00;5.00;;;;;27.33;43.27;99962.22;6309329;20;2739856;-60
2022/08/08 10:10:38;;;;;;;;;4.00;4.00;;;;;26.97;43.40;99962.22;6302795;20;2740897;-49
2022/08/08 10:13:31;;;;;;;;;4.00;4.00;;;;;26.74;44.89;99963.22;6320697;20;2739869;-52
2022/08/08 10:16:10;;;;;;;;;5.40;4.40;;;;;27.16;45.12;99972.63;6335772;20;2730492;-54
2022/08/08 10:18:39;;;;;;;;;5.67;5.67;;;;;26.95;44.47;99964.31;6290627;20;2741993;-52
2022/08/08 10:21:12;;;;;;;;;7.80;7.80;;;;;26.90;44.42;99968.50;6341528;20;2737793;-60
2022/08/08 10:24:02;;;;;;;;;7.67;5.33;;;;;26.96;44.61;99966.88;6323085;20;2738805;-61
2022/08/08 10:26:48;;;;;;;;;4.60;4.40;;;;;26.91;44.38;99956.44;6337887;20;2740925;-60
2022/08/08 10:30:01;;;;;;;;;3.40;3.40;;;;;27.07;44.03;99958.13;6305046;20;2750268;-61
2022/08/08 10:32:35;;;;;;;;;4.80;4.80;;;;;27.16;44.01;99953.31;6311092;20;2747193;-60
2022/08/08 10:35:17;;;;;;;;;5.80;5.60;;;;;27.22;43.47;99948.94;6303847;20;2735786;-60
2022/08/08 10:38:08;;;;;;;;;6.33;6.33;;;;;26.61;44.79;99936.34;6280560;20;2741988;-60
2022/08/08 10:40:44;;;;;;;;;6.00;6.00;;;;;26.58;44.79;99941.41;6315873;20;2737775;-60
2022/08/08 10:43:14;;;;;;;;;6.00;6.00;;;;;26.40;45.42;99939.84;6336392;20;2739980;-61
2022/08/08 10:45:50;;;;;;;;;6.00;4.80;;;;;26.27;45.13;99934.16;6310520;20;2746117;-61
2022/08/08 10:48:35;;;;;;;;;7.20;4.80;;;;;26.23;46.18;99922.69;6311484;20;2742042;-57
2022/08/08 10:51:34;;;;;;;;;6.20;4.60;;;;;26.45;45.29;99931.03;6308883;20;2735760;-58
2022/08/08 10:54:23;;;;;;;;;3.00;3.00;;;;;26.36;44.75;99923.94;6308804;20;2750334;-55
2022/08/08 10:57:01;;;;;;;;;5.00;5.00;;;;;26.28;45.05;99922.97;6314336;20;2735885;-57
2022/08/08 10:59:32;;;;;;;;;4.20;4.20;;;;;26.17;45.66;99917.09;6342661;20;2754402;-51
2022/08/08 11:02:10;;;;;;;;;4.80;4.00;;;;;26.14;45.80;99911.97;6309595;20;2740876;-56
2022/08/08 11:04:45;;;;;;;;;4.00;4.00;;;;;25.90;46.64;99897.44;6310720;20;2745067;-58
2022/08/08 11:07:56;;;;;;;;;5.67;5.00;;;;;25.35;52.70;99890.38;6289897;20;2739828;-59
2022/08/08 11:10:44;;;;;;;;;7.33;5.00;;;;;25.35;55.80;99909.63;6319483;20;2751423;-51
2022/08/08 11:13:20;;;;;;;;;5.20;5.20;;;;;25.34;58.44;99916.19;6340868;20;2730517;-57
2022/08/08 11:16:00;;;;;;;;;5.40;4.40;;;;;25.39;58.29;99920.09;6345340;20;2745041;-55
2022/08/08 11:18:40;;;;;;;;;3.60;3.60;;;;;25.65;57.94;99912.47;6312394;20;2740939;-58
2022/08/08 11:21:15;;;;;;;;;4.20;4.20;;;;;25.61;53.54;99907.31;6313613;20;2740888;-58
2022/08/08 11:23:48;;;;;;;;;7.00;5.67;;;;;25.65;55.65;99906.97;6319364;20;2746142;-59
2022/08/08 11:26:37;;;;;;;;;5.40;5.00;;;;;25.66;51.81;99908.69;6340479;20;2725255;-57
2022/08/08 11:29:26;;;;;;;;;5.00;5.00;;;;;25.51;52.20;99909.47;6346810;20;2734808;-58
2022/08/08 11:32:20;;;;;;;;;4.00;4.00;;;;;25.85;51.59;99916.41;6343345;20;2728348;-59
2022/08/08 11:35:10;;;;;;;;;6.40;5.60;;;;;25.94;51.52;99915.28;6339555;20;2740900;-58
2022/08/08 11:37:59;;;;;;;;;4.33;4.00;;;;;25.80;50.65;99910.56;6321024;20;2745459;-63
2022/08/08 11:40:52;;;;;;;;;5.80;4.80;;;;;25.88;51.27;99913.28;6345471;20;2731508;-63
2022/08/08 11:43:24;;;;;;;;;4.80;4.00;;;;;25.78;51.27;99918.19;6347168;20;2750265;-62
2022/08/08 11:46:09;;;;;;;;;6.60;6.00;;;;;25.72;52.64;99914.25;6310710;20;2746539;-62
2022/08/08 11:48:48;;;;;;;;;8.00;5.20;;;;;25.53;53.14;99921.16;6311414;20;2744061;-62
2022/08/08 11:51:21;;;;;;;;;4.80;4.80;;;;;25.45;55.50;99929.47;6311641;20;2752348;-62
2022/08/08 11:54:09;;;;;;;;;6.00;4.60;;;;;25.52;54.83;99929.59;6312721;20;2741905;-63
2022/08/08 11:57:16;;;;;;;;;6.00;6.00;;;;;25.73;54.37;99928.91;6313393;20;2741946;-64
2022/08/08 11:59:57;;;;;;;;;8.00;5.80;;;;;26.09;53.95;99925.44;6308223;20;2731537;-62
2022/08/08 12:02:53;;;;;;;;;4.80;4.80;;;;;26.32;52.80;99925.34;6314866;20;2748250;-63
2022/08/08 12:05:37;;;;;;;;;5.00;5.00;;;;;26.86;50.81;99922.25;6312571;20;2738862;-63
2022/08/08 12:08:10;;;;;;;;;5.60;3.60;;;;;27.02;49.11;99911.00;6343713;20;2751478;-64
2022/08/08 12:10:51;;;;;;;;;5.80;5.00;;;;;27.08;47.51;99915.69;6309221;20;2737773;-62
2022/08/08 12:13:24;;;;;;;;;3.20;3.20;;;;;27.59;46.76;99911.94;6311867;20;2724225;-62
2022/08/08 12:16:18;;;;;;;;;5.00;5.00;;;;;27.63;45.83;99915.19;6340798;20;2736806;-59
2022/08/08 12:18:53;;;;;;;;;6.00;6.00;;;;;27.53;46.08;99908.09;6290190;20;2739892;-60
2022/08/08 12:21:26;;;;;;;;;5.00;4.00;;;;;28.55;43.03;99909.44;6346413;20;2745080;-60
2022/08/08 12:24:20;;;;;;;;;5.00;5.00;;;;;29.29;40.53;99908.59;6311470;20;2743075;-60
2022/08/08 12:26:55;;;;;;;;;5.00;5.00;;;;;29.23;39.87;99908.59;6286558;20;2746069;-60
2022/08/08 12:29:33;;;;;;;;;6.00;4.00;;;;;29.06;39.69;99906.22;6345865;20;2745316;-60
2022/08/08 12:32:16;;;;;;;;;4.80;4.80;;;;;29.02;39.58;99904.06;6314769;20;2750252;-60
2022/08/08 12:35:00;;;;;;;;;9.67;8.00;;;;;29.24;38.55;99896.47;6282909;20;2767972;-60
2022/08/08 12:38:05;;;;;;;;;4.67;4.67;;;;;29.26;38.92;99894.34;6319986;20;2744026;-60
2022/08/08 12:40:55;;;;;;;;;6.00;6.00;;;;;28.96;39.33;99891.91;6319467;20;2741471;-60
2022/08/08 12:43:34;;;;;;;;;7.00;5.33;;;;;29.63;38.56;99898.41;6318317;20;2740874;-60
2022/08/08 12:46:23;;;;;;;;;5.67;5.67;;;;;29.86;38.12;99888.81;6326537;20;2739872;-60
2022/08/08 12:49:04;;;;;;;;;4.67;4.67;;;;;29.54;38.61;99889.47;6318648;20;2741933;-61
2022/08/08 12:51:53;;;;;;;;;6.00;5.33;;;;;30.28;37.59;99886.63;6316005;20;2740908;-59
2022/08/08 12:54:35;;;;;;;;;6.00;6.00;;;;;29.52;39.14;99888.81;6316048;20;2748218;-60
2022/08/08 12:57:22;;;;;;;;;6.00;6.00;;;;;30.20;37.56;99887.66;6317199;20;2735802;-60